KFFO/FFO METAR and TAF weather

Enter ICAO airport designator
Station Type Date Time Source
KFFO METAR 2019/10/18 10:56 UTC NOAA

KFFO 181056Z AUTO 22003KT 10SM CLR 01/M01 A3008 RMK AO2 SLP193 T00071006


Station Type Date Time Source
KFFO Decoded METAR 2019/10/18 10:56 UTC NOAA

Dayton / Wright-Patterson Air Force Base, OH, United States (KFFO) 39-50N 084-03W 251M
Oct 18, 2019 - 06:56 AM EDT / 2019.10.18 1056 UTC
Wind: from the SW (220 degrees) at 3 MPH (3 KT):0
Visibility: 10 mile(s):0
Sky conditions: clear
Temperature: 33.3 F (0.7 C)
Dew Point: 30.9 F (-0.6 C)
Relative Humidity: 90%
Pressure (altimeter): 30.08 in. Hg (1018 hPa)
ob: KFFO 181056Z AUTO 22003KT 10SM CLR 01/M01 A3008 RMK AO2 SLP193 T00071006
cycle: 11

Station Type Date Time Source
KFFO TAF 2019/10/18 11:03 UTC NOAA

TAF KFFO 181100Z 1811/1917 VRB06KT 9999 SKC QNH3002INS
BECMG 1823/1824 12006KT 9999 SCT250 QNH2997INS WND 16006KT AFT 1915 TX14/1821Z TN01/1811Z

Example: see airport list